Aviation Digital Data Service (ADDS)

Output produced by METARs form (0237 UTC 10 February 2016)
found at http://aviationweather.gov/adds/metars/
 
KHKY 092332Z 1000/1024 29008KT P6SM BKN060 
     FM101000 27005KT P6SM FEW070 SCT200 
     FM101600 29009KT P6SM SCT070 
     FM102000 29013G20KT P6SM SCT250